createdAt,value
2023-04-09T00:01:26.828Z,23.47
2023-04-09T00:06:30.107Z,24.73
2023-04-09T00:11:33.616Z,23.63
2023-04-09T00:16:37.281Z,21.23
2023-04-09T00:21:40.423Z,21.83
2023-04-09T00:26:43.656Z,22.93
2023-04-09T00:31:47.112Z,24.27
2023-04-09T00:36:50.768Z,23.90
2023-04-09T00:42:04.780Z,25.40
2023-04-09T00:47:08.196Z,24.20
2023-04-09T00:52:11.756Z,23.97
2023-04-09T00:57:16.131Z,24.10
2023-04-09T01:02:19.398Z,24.17
2023-04-09T01:07:51.556Z,24.60
2023-04-09T01:13:03.620Z,23.97
2023-04-09T01:18:12.090Z,23.30
2023-04-09T01:23:32.566Z,24.53
2023-04-09T01:28:43.015Z,22.07
2023-04-09T01:33:47.290Z,22.90
2023-04-09T01:38:52.740Z,23.20
2023-04-09T01:43:56.953Z,25.20
2023-04-09T01:49:00.986Z,26.90
2023-04-09T01:54:05.582Z,28.10
2023-04-09T01:59:08.973Z,26.13
2023-04-09T02:04:25.803Z,26.77
2023-04-09T02:09:32.052Z,26.53
2023-04-09T02:14:37.991Z,26.70
2023-04-09T02:19:46.535Z,28.53
2023-04-09T02:24:49.803Z,27.73
2023-04-09T02:29:53.428Z,29.50
2023-04-09T02:34:56.951Z,26.07
2023-04-09T02:40:00.142Z,24.60
2023-04-09T02:45:03.690Z,25.53
2023-04-09T02:50:07.588Z,25.03
2023-04-09T02:55:10.896Z,26.17
2023-04-09T03:00:15.053Z,24.60
2023-04-09T03:05:18.244Z,24.10
2023-04-09T03:10:21.662Z,20.47
2023-04-09T03:15:25.242Z,23.90
2023-04-09T03:20:28.434Z,23.30
2023-04-09T03:25:31.647Z,22.53
2023-04-09T03:30:35.183Z,22.57
2023-04-09T03:35:38.425Z,23.23
2023-04-09T03:40:43.384Z,21.80
2023-04-09T03:45:46.664Z,24.80
2023-04-09T03:50:49.798Z,22.93
2023-04-09T03:55:53.387Z,24.77
2023-04-09T04:00:56.675Z,26.83
2023-04-09T04:06:04.457Z,25.53
2023-04-09T04:11:07.936Z,27.03
2023-04-09T04:16:11.565Z,24.87
2023-04-09T04:21:16.347Z,23.87
2023-04-09T04:26:19.662Z,24.27
2023-04-09T04:31:23.149Z,24.33
2023-04-09T04:36:26.616Z,25.30
2023-04-09T04:41:30.116Z,23.07
2023-04-09T04:46:33.485Z,23.23
2023-04-09T04:51:37.127Z,23.63
2023-04-09T04:56:40.357Z,21.90
2023-04-09T05:01:43.829Z,20.70
2023-04-09T05:06:47.448Z,19.00
2023-04-09T05:11:50.877Z,19.27
2023-04-09T05:16:54.402Z,19.20
2023-04-09T05:21:57.792Z,17.63
2023-04-09T05:27:01.713Z,18.13
2023-04-09T05:32:05.020Z,17.20
2023-04-09T05:37:08.617Z,17.90
2023-04-09T05:42:11.849Z,18.53
2023-04-09T05:47:15.120Z,18.67
2023-04-09T05:52:18.455Z,17.27
2023-04-09T05:57:21.809Z,18.53
2023-04-09T06:02:25.901Z,18.13
2023-04-09T06:07:29.378Z,20.00
2023-04-09T06:12:35.823Z,19.13
2023-04-09T06:17:40.761Z,19.40
2023-04-09T06:22:44.208Z,21.10
2023-04-09T06:27:47.710Z,20.70
2023-04-09T06:32:54.789Z,21.30
2023-04-09T06:37:58.776Z,21.57
2023-04-09T06:43:01.918Z,20.03
2023-04-09T06:48:05.772Z,19.60
2023-04-09T06:53:09.118Z,20.57
2023-04-09T06:58:12.488Z,21.70
2023-04-09T07:03:15.904Z,22.17
2023-04-09T07:08:19.048Z,22.23
2023-04-09T07:13:22.420Z,21.67
2023-04-09T07:18:25.766Z,21.10
2023-04-09T07:23:29.036Z,21.03
2023-04-09T07:28:32.856Z,20.77
2023-04-09T07:33:36.496Z,21.07
2023-04-09T07:38:39.857Z,23.33
2023-04-09T07:43:43.430Z,21.87
2023-04-09T07:48:48.312Z,23.47
2023-04-09T07:53:51.676Z,21.37
2023-04-09T07:58:55.072Z,22.40
2023-04-09T08:03:58.394Z,21.50
2023-04-09T08:09:02.220Z,20.33
2023-04-09T08:14:06.802Z,19.60
2023-04-09T08:19:10.664Z,20.83
2023-04-09T08:24:14.549Z,21.30
2023-04-09T08:29:17.839Z,23.03
2023-04-09T08:34:22.574Z,23.47
2023-04-09T08:39:25.905Z,23.63
2023-04-09T08:44:30.198Z,21.27
2023-04-09T08:49:33.926Z,19.43
2023-04-09T08:54:38.322Z,20.50
2023-04-09T08:59:41.529Z,19.53
2023-04-09T09:04:49.085Z,19.47
2023-04-09T09:09:53.935Z,20.47
2023-04-09T09:14:57.241Z,19.17
2023-04-09T09:20:14.244Z,18.33
2023-04-09T09:25:17.515Z,17.07
2023-04-09T09:30:27.829Z,17.67
2023-04-09T09:35:31.510Z,16.77
2023-04-09T09:40:34.760Z,19.17
2023-04-09T09:45:38.735Z,17.63
2023-04-09T09:50:43.321Z,15.53
2023-04-09T09:55:52.422Z,16.13
2023-04-09T10:00:57.934Z,16.23
2023-04-09T10:06:03.351Z,16.00
2023-04-09T10:11:08.135Z,14.97
2023-04-09T10:16:11.691Z,15.70
2023-04-09T10:21:14.967Z,14.30
2023-04-09T10:26:19.704Z,14.57
2023-04-09T10:31:22.940Z,16.03
2023-04-09T10:36:28.258Z,16.20
2023-04-09T10:41:34.479Z,15.03
2023-04-09T10:46:37.784Z,16.03
2023-04-09T10:51:41.767Z,16.13
2023-04-09T10:57:07.686Z,17.47
2023-04-09T11:02:18.645Z,16.27
2023-04-09T11:07:25.539Z,17.17
2023-04-09T11:12:28.788Z,18.60
2023-04-09T11:17:37.197Z,18.50
2023-04-09T11:22:40.562Z,18.60
2023-04-09T11:27:47.143Z,18.40
2023-04-09T11:32:51.181Z,17.43
2023-04-09T11:37:54.803Z,19.07
2023-04-09T11:42:58.079Z,18.20
2023-04-09T11:48:03.483Z,18.33
2023-04-09T11:53:21.083Z,17.20
2023-04-09T11:58:26.816Z,19.97
2023-04-09T12:03:33.782Z,17.43
2023-04-09T12:08:38.208Z,18.70
2023-04-09T12:13:45.078Z,17.30
2023-04-09T12:18:48.641Z,19.03
2023-04-09T12:23:51.928Z,17.07
2023-04-09T12:28:55.057Z,17.47
2023-04-09T12:33:58.316Z,17.87
2023-04-09T12:39:01.645Z,18.23
2023-04-09T12:44:05.538Z,16.80
2023-04-09T12:49:09.548Z,18.57
2023-04-09T12:54:12.779Z,17.73
2023-04-09T12:59:16.104Z,17.07
2023-04-09T13:04:19.605Z,18.93
2023-04-09T13:09:22.918Z,18.47
2023-04-09T13:14:26.288Z,16.63
2023-04-09T13:19:29.425Z,17.13
2023-04-09T13:24:32.831Z,17.70
2023-04-09T13:29:36.480Z,17.87
2023-04-09T13:34:40.128Z,17.23
2023-04-09T13:39:45.172Z,16.97
2023-04-09T13:44:48.293Z,18.43
2023-04-09T13:49:54.155Z,17.93
2023-04-09T13:54:57.310Z,18.10
2023-04-09T14:00:04.413Z,17.03
2023-04-09T14:05:08.151Z,16.90
2023-04-09T14:10:11.822Z,16.97
2023-04-09T14:15:15.296Z,18.63
2023-04-09T14:20:21.502Z,17.90
2023-04-09T14:25:24.699Z,19.10
2023-04-09T14:30:28.050Z,17.07
2023-04-09T14:35:31.296Z,19.07
2023-04-09T14:40:34.632Z,20.13
2023-04-09T14:45:38.521Z,20.60
2023-04-09T14:50:43.536Z,21.10
2023-04-09T14:55:46.955Z,17.03
2023-04-09T15:00:50.801Z,19.17
2023-04-09T15:05:54.128Z,19.73
2023-04-09T15:10:57.527Z,21.40
2023-04-09T15:16:00.935Z,19.17
2023-04-09T15:21:04.792Z,19.20
2023-04-09T15:26:08.067Z,18.57
2023-04-09T15:31:11.789Z,18.90
2023-04-09T15:36:15.246Z,17.57
2023-04-09T15:41:18.646Z,20.07
2023-04-09T15:46:22.315Z,20.07
2023-04-09T15:51:27.484Z,18.70
2023-04-09T15:56:30.830Z,18.37
2023-04-09T16:01:36.144Z,19.53
2023-04-09T16:06:40.229Z,18.70
2023-04-09T16:11:43.459Z,17.23
2023-04-09T16:16:50.138Z,16.30
2023-04-09T16:21:54.286Z,16.87
2023-04-09T16:26:58.053Z,18.53
2023-04-09T16:32:01.575Z,17.47
2023-04-09T16:37:05.067Z,41.23
2023-04-09T16:42:08.376Z,20.13
2023-04-09T16:47:11.739Z,18.97
2023-04-09T16:52:15.164Z,19.47
2023-04-09T16:57:18.685Z,18.93
2023-04-09T17:02:22.455Z,18.70
2023-04-09T17:07:26.145Z,19.67
2023-04-09T17:12:29.275Z,22.93
2023-04-09T17:17:33.844Z,22.07
2023-04-09T17:22:38.566Z,21.13
2023-04-09T17:27:44.307Z,22.00
2023-04-09T17:32:48.359Z,18.37
2023-04-09T17:37:51.686Z,20.10
2023-04-09T17:42:56.180Z,22.83
2023-04-09T17:48:00.431Z,38.33
2023-04-09T17:53:04.214Z,40.30
2023-04-09T17:58:07.610Z,36.70
2023-04-09T18:03:13.219Z,37.93
2023-04-09T18:08:16.859Z,36.17
2023-04-09T18:13:20.367Z,36.73
2023-04-09T18:18:23.601Z,32.40
2023-04-09T18:23:27.538Z,26.00
2023-04-09T18:28:30.733Z,27.07
2023-04-09T18:33:34.818Z,25.53
2023-04-09T18:38:38.275Z,27.57
2023-04-09T18:43:41.847Z,26.87
2023-04-09T18:48:47.355Z,27.47
2023-04-09T18:53:53.327Z,32.33
2023-04-09T18:58:57.405Z,24.63
2023-04-09T19:04:00.957Z,22.00
2023-04-09T19:09:05.045Z,21.07
2023-04-09T19:14:09.242Z,21.60
2023-04-09T19:19:13.653Z,22.93
2023-04-09T19:24:16.934Z,22.50
2023-04-09T19:29:21.830Z,23.73
2023-04-09T19:34:25.313Z,25.73
2023-04-09T19:39:29.734Z,25.30
2023-04-09T19:44:33.633Z,24.93
2023-04-09T19:49:37.590Z,21.37
2023-04-09T19:54:41.334Z,16.17
2023-04-09T19:59:44.582Z,14.20
2023-04-09T20:04:48.039Z,12.37
2023-04-09T20:09:52.980Z,11.67
2023-04-09T20:15:00.130Z,10.30
2023-04-09T20:20:07.316Z,9.00
2023-04-09T20:25:14.604Z,8.10
2023-04-09T20:30:18.957Z,8.97
2023-04-09T20:35:22.546Z,7.07
2023-04-09T20:40:25.750Z,7.17
2023-04-09T20:45:29.808Z,7.43
2023-04-09T20:50:33.047Z,7.27
2023-04-09T20:55:37.417Z,5.97
2023-04-09T21:00:40.734Z,7.00
2023-04-09T21:05:44.015Z,6.90
2023-04-09T21:10:47.243Z,7.13
2023-04-09T21:15:50.702Z,6.13
2023-04-09T21:20:54.486Z,6.00
2023-04-09T21:25:57.664Z,5.63
2023-04-09T21:31:01.001Z,5.80
2023-04-09T21:36:05.001Z,6.10
2023-04-09T21:41:08.870Z,5.53
2023-04-09T21:46:12.183Z,5.30
2023-04-09T21:51:15.487Z,5.00
2023-04-09T21:56:18.671Z,4.47
2023-04-09T22:01:29.071Z,5.70
2023-04-09T22:06:32.747Z,6.10
2023-04-09T22:11:36.069Z,5.40
2023-04-09T22:16:39.308Z,4.87
2023-04-09T22:21:42.409Z,4.43
2023-04-09T22:26:47.301Z,4.63
2023-04-09T22:31:50.530Z,4.60
2023-04-09T22:36:53.872Z,4.63
2023-04-09T22:41:57.154Z,4.70
2023-04-09T22:47:00.427Z,4.37
2023-04-09T22:52:03.822Z,4.33
2023-04-09T22:57:07.110Z,4.80
2023-04-09T23:02:10.855Z,5.20
2023-04-09T23:07:14.881Z,4.77
2023-04-09T23:12:18.459Z,4.03
2023-04-09T23:17:23.117Z,4.83
2023-04-09T23:22:27.614Z,4.60
2023-04-09T23:27:30.848Z,4.33
2023-04-09T23:32:34.126Z,4.73
2023-04-09T23:37:37.892Z,4.30
2023-04-09T23:42:41.195Z,6.73
2023-04-09T23:47:44.846Z,8.43
2023-04-09T23:52:50.057Z,8.40
2023-04-09T23:57:53.399Z,6.63
